Time,TemperatureF,DewpointF,PressureIn,WindDirection,WindDirectionDegrees,WindSpeedMPH,WindSpeedGustMPH,Humidity,HourlyPrecipIn,Conditions,Clouds,dailyrainin,SoftwareType,DateUTC
2013-02-23 00:00:00,66.0,65.7,29.86,South,181,2.0,3.0,99,0.00,,,0.43,meteohub,2013-02-23 06:00:00,
2013-02-23 00:05:00,65.7,65.3,29.86,South,181,2.0,4.0,99,0.00,,,0.00,meteohub,2013-02-23 06:05:00,
2013-02-23 00:11:00,65.5,65.1,29.86,South,188,2.0,5.0,99,0.00,,,0.00,meteohub,2013-02-23 06:11:00,
2013-02-23 00:16:00,65.1,64.8,29.86,South,188,0.0,5.0,99,0.00,,,0.00,meteohub,2013-02-23 06:16:00,
2013-02-23 00:21:00,64.9,64.6,29.86,South,185,1.0,5.0,99,0.00,,,0.00,meteohub,2013-02-23 06:21:00,
2013-02-23 00:26:00,64.9,64.6,29.86,South,189,0.0,3.0,99,0.00,,,0.00,meteohub,2013-02-23 06:26:00,
2013-02-23 00:31:00,64.8,64.4,29.85,SSW,192,0.0,2.0,99,0.00,,,0.00,meteohub,2013-02-23 06:31:00,
2013-02-23 00:36:00,64.8,64.4,29.85,SSW,192,0.0,2.0,99,0.00,,,0.00,meteohub,2013-02-23 06:36:00,
2013-02-23 00:41:00,64.8,64.4,29.84,SSW,192,0.0,1.0,99,0.00,,,0.00,meteohub,2013-02-23 06:41:00,
2013-02-23 00:46:00,64.8,64.4,29.84,SSW,192,0.0,1.0,99,0.00,,,0.00,meteohub,2013-02-23 06:46:00,
2013-02-23 00:51:00,64.8,64.4,29.84,South,190,0.0,1.0,99,0.00,,,0.00,meteohub,2013-02-23 06:51:00,
2013-02-23 00:56:00,64.8,64.4,29.84,South,190,0.0,0.0,99,0.00,,,0.00,meteohub,2013-02-23 06:56:00,
2013-02-23 01:01:00,64.6,64.2,29.84,South,190,0.0,0.0,99,0.00,,,0.00,meteohub,2013-02-23 07:01:00,
2013-02-23 01:06:00,64.8,64.4,29.83,South,190,0.0,0.0,99,0.00,,,0.00,meteohub,2013-02-23 07:06:00,
2013-02-23 01:11:00,64.6,64.2,29.83,South,190,0.0,0.0,99,0.00,,,0.00,meteohub,2013-02-23 07:11:00,
2013-02-23 01:16:00,64.6,64.2,29.83,South,190,0.0,0.0,99,0.00,,,0.00,meteohub,2013-02-23 07:16:00,
2013-02-23 01:21:00,64.6,64.2,29.83,South,190,0.0,0.0,99,0.00,,,0.00,meteohub,2013-02-23 07:21:00,
2013-02-23 01:26:00,64.8,64.4,29.83,South,190,0.0,0.0,99,0.00,,,0.00,meteohub,2013-02-23 07:26:00,
2013-02-23 01:31:00,64.9,64.9,29.83,South,190,0.0,0.0,100,0.00,,,0.00,meteohub,2013-02-23 07:31:00,
2013-02-23 01:36:00,65.1,65.1,29.82,SSW,192,1.0,1.0,100,0.00,,,0.00,meteohub,2013-02-23 07:36:00,
2013-02-23 01:41:00,65.1,65.1,29.82,SSW,192,0.0,2.0,100,0.00,,,0.00,meteohub,2013-02-23 07:41:00,
2013-02-23 01:46:00,65.5,65.5,29.82,South,190,0.0,2.0,100,0.00,,,0.00,meteohub,2013-02-23 07:46:00,
2013-02-23 01:51:00,65.5,65.5,29.82,South,190,0.0,2.0,100,0.00,,,0.00,meteohub,2013-02-23 07:51:00,
2013-02-23 01:57:00,65.7,65.7,29.82,South,188,0.0,0.0,100,0.00,,,0.00,meteohub,2013-02-23 07:57:00,
2013-02-23 02:02:00,65.8,65.8,29.81,South,185,0.0,0.0,100,0.00,,,0.00,meteohub,2013-02-23 08:02:00,
2013-02-23 02:07:00,66.0,66.0,29.81,South,185,0.0,1.0,100,0.00,,,0.00,meteohub,2013-02-23 08:07:00,
2013-02-23 02:12:00,66.0,66.0,29.81,South,181,1.0,1.0,100,0.00,,,0.00,meteohub,2013-02-23 08:12:00,
2013-02-23 02:17:00,66.4,66.4,29.81,South,181,1.0,1.0,100,0.00,,,0.00,meteohub,2013-02-23 08:17:00,
2013-02-23 02:22:00,66.6,66.6,29.81,South,182,0.0,1.0,100,0.00,,,0.00,meteohub,2013-02-23 08:22:00,
2013-02-23 02:27:00,66.7,66.7,29.81,South,176,2.0,2.0,100,0.00,,,0.00,meteohub,2013-02-23 08:27:00,
2013-02-23 02:32:00,66.7,66.7,29.81,South,181,1.0,2.0,100,0.00,,,0.00,meteohub,2013-02-23 08:32:00,
2013-02-23 02:37:00,66.7,66.7,29.82,South,182,0.0,2.0,100,0.00,,,0.00,meteohub,2013-02-23 08:37:00,
2013-02-23 02:42:00,66.7,66.7,29.81,South,182,0.0,2.0,100,0.00,,,0.00,meteohub,2013-02-23 08:42:00,
2013-02-23 02:47:00,66.4,66.4,29.81,South,182,0.0,2.0,100,0.00,,,0.00,meteohub,2013-02-23 08:47:00,
2013-02-23 02:52:00,66.0,65.7,29.81,South,181,0.0,2.0,99,0.00,,,0.00,meteohub,2013-02-23 08:52:00,
2013-02-23 02:57:00,66.0,65.7,29.81,South,182,0.0,2.0,99,0.00,,,0.00,meteohub,2013-02-23 08:57:00,
2013-02-23 03:02:00,65.8,65.5,29.81,South,182,1.0,1.0,99,0.00,,,0.00,meteohub,2013-02-23 09:02:00,
2013-02-23 03:07:00,65.5,65.1,29.81,South,181,0.0,2.0,99,0.00,,,0.00,meteohub,2013-02-23 09:07:00,
2013-02-23 03:12:00,64.8,64.4,29.82,South,182,0.0,3.0,99,0.00,,,0.00,meteohub,2013-02-23 09:12:00,
2013-02-23 03:18:00,64.4,64.0,29.82,SSE,166,7.0,7.0,99,0.00,,,0.00,meteohub,2013-02-23 09:18:00,
2013-02-23 03:23:00,63.7,63.3,29.83,South,174,3.0,7.0,99,0.00,,,0.00,meteohub,2013-02-23 09:23:00,
2013-02-23 03:28:00,63.0,62.6,29.82,South,190,1.0,7.0,99,0.00,,,0.00,meteohub,2013-02-23 09:28:00,
2013-02-23 03:33:00,62.8,62.4,29.83,South,188,2.0,7.0,99,0.00,,,0.00,meteohub,2013-02-23 09:33:00,
2013-02-23 03:38:00,62.4,62.1,29.83,South,176,5.0,5.0,99,0.00,,,0.00,meteohub,2013-02-23 09:38:00,
2013-02-23 03:43:00,62.1,61.7,29.83,South,176,2.0,8.0,99,0.00,,,0.00,meteohub,2013-02-23 09:43:00,
2013-02-23 03:48:00,61.7,61.3,29.83,South,189,2.0,8.0,99,0.00,,,0.00,meteohub,2013-02-23 09:48:00,
2013-02-23 03:53:00,61.3,61.0,29.84,South,188,3.0,8.0,99,0.00,,,0.00,meteohub,2013-02-23 09:53:00,
2013-02-23 03:58:00,61.0,60.6,29.84,South,186,1.0,6.0,99,0.00,,,0.00,meteohub,2013-02-23 09:58:00,
2013-02-23 04:03:00,60.4,60.1,29.84,South,186,4.0,6.0,99,0.00,,,0.00,meteohub,2013-02-23 10:03:00,
2013-02-23 04:08:00,59.7,59.4,29.84,South,186,1.0,6.0,99,0.00,,,0.00,meteohub,2013-02-23 10:08:00,
2013-02-23 04:13:00,59.5,59.2,29.84,South,185,1.0,12.0,99,0.00,,,0.00,meteohub,2013-02-23 10:13:00,
2013-02-23 04:18:00,59.4,59.0,29.84,South,174,1.0,12.0,99,0.00,,,0.00,meteohub,2013-02-23 10:18:00,
2013-02-23 04:23:00,59.2,58.8,29.84,South,172,3.0,12.0,99,0.00,,,0.00,meteohub,2013-02-23 10:23:00,
2013-02-23 04:28:00,59.0,58.6,29.84,South,187,3.0,7.0,99,0.00,,,0.00,meteohub,2013-02-23 10:28:00,
2013-02-23 04:33:00,58.8,58.5,29.84,South,169,3.0,7.0,99,0.00,,,0.00,meteohub,2013-02-23 10:33:00,
2013-02-23 04:38:00,58.8,58.5,29.83,South,179,2.0,7.0,99,0.00,,,0.00,meteohub,2013-02-23 10:38:00,
2013-02-23 04:43:00,58.8,58.5,29.83,South,173,2.0,6.0,99,0.01,,,0.01,meteohub,2013-02-23 10:43:00,
2013-02-23 04:48:00,58.8,58.5,29.83,South,186,4.0,6.0,99,0.01,,,0.01,meteohub,2013-02-23 10:48:00,
2013-02-23 04:53:00,58.8,58.5,29.83,South,174,2.0,6.0,99,0.01,,,0.01,meteohub,2013-02-23 10:53:00,
2013-02-23 04:58:00,58.8,58.5,29.83,South,172,0.0,6.0,99,0.01,,,0.01,meteohub,2013-02-23 10:58:00,
2013-02-23 05:03:00,58.8,58.5,29.84,South,174,0.0,4.0,99,0.01,,,0.01,meteohub,2013-02-23 11:03:00,
2013-02-23 05:08:00,58.8,58.5,29.84,South,175,0.0,3.0,99,0.01,,,0.01,meteohub,2013-02-23 11:08:00,
2013-02-23 05:13:00,58.8,58.5,29.84,South,173,0.0,1.0,99,0.01,,,0.01,meteohub,2013-02-23 11:13:00,
2013-02-23 05:18:00,59.0,58.6,29.85,South,175,0.0,1.0,99,0.01,,,0.01,meteohub,2013-02-23 11:18:00,
2013-02-23 05:23:00,59.0,58.6,29.85,South,175,0.0,1.0,99,0.01,,,0.01,meteohub,2013-02-23 11:23:00,
2013-02-23 05:28:00,59.0,58.6,29.84,South,183,0.0,1.0,99,0.01,,,0.01,meteohub,2013-02-23 11:28:00,
2013-02-23 05:33:00,59.0,58.6,29.84,South,185,1.0,2.0,99,0.01,,,0.01,meteohub,2013-02-23 11:33:00,
2013-02-23 05:38:00,59.2,58.8,29.84,South,183,0.0,2.0,99,0.01,,,0.01,meteohub,2013-02-23 11:38:00,
2013-02-23 05:43:00,59.2,58.8,29.84,South,172,1.0,2.0,99,0.00,,,0.01,meteohub,2013-02-23 11:43:00,
2013-02-23 05:48:00,59.2,58.8,29.84,South,173,0.0,3.0,99,0.00,,,0.01,meteohub,2013-02-23 11:48:00,
2013-02-23 05:53:00,59.2,58.8,29.85,South,172,1.0,3.0,99,0.00,,,0.01,meteohub,2013-02-23 11:53:00,
2013-02-23 05:58:00,59.2,58.8,29.85,South,185,3.0,3.0,99,0.00,,,0.01,meteohub,2013-02-23 11:58:00,
2013-02-23 06:03:00,59.0,58.6,29.84,South,190,1.0,4.0,99,0.00,,,0.01,meteohub,2013-02-23 12:03:00,
2013-02-23 06:08:00,59.0,58.6,29.88,South,186,7.0,7.0,99,0.00,,,0.01,meteohub,2013-02-23 12:08:00,
2013-02-23 06:13:00,59.0,58.6,29.86,South,169,3.0,10.0,99,0.14,,,0.02,meteohub,2013-02-23 12:13:00,
2013-02-23 06:18:00,59.0,58.6,29.86,South,188,3.0,10.0,99,0.19,,,0.18,meteohub,2013-02-23 12:18:00,
2013-02-23 06:23:00,58.8,58.5,29.86,South,176,3.0,10.0,99,0.21,,,0.22,meteohub,2013-02-23 12:23:00,
2013-02-23 06:28:00,58.6,58.3,29.87,South,169,4.0,10.0,99,0.21,,,0.22,meteohub,2013-02-23 12:28:00,
2013-02-23 06:33:00,58.5,58.1,29.87,South,189,1.0,12.0,99,0.28,,,0.27,meteohub,2013-02-23 12:33:00,
2013-02-23 06:38:00,57.7,57.4,29.87,South,182,0.0,12.0,99,0.28,,,0.27,meteohub,2013-02-23 12:38:00,
2013-02-23 06:43:00,57.4,57.0,29.86,South,176,4.0,8.0,99,0.32,,,0.32,meteohub,2013-02-23 12:43:00,
2013-02-23 06:48:00,57.4,57.0,29.86,SSW,192,2.0,8.0,99,0.34,,,0.35,meteohub,2013-02-23 12:48:00,
2013-02-23 06:53:00,57.2,56.8,29.87,South,189,5.0,7.0,99,0.38,,,0.38,meteohub,2013-02-23 12:53:00,
2013-02-23 06:58:00,57.0,56.7,29.88,South,186,1.0,7.0,99,0.39,,,0.40,meteohub,2013-02-23 12:58:00,
2013-02-23 07:03:00,57.2,56.8,29.87,South,176,0.0,7.0,99,0.40,,,0.41,meteohub,2013-02-23 13:03:00,
2013-02-23 07:08:00,57.0,56.7,29.86,South,178,0.0,5.0,99,0.42,,,0.42,meteohub,2013-02-23 13:08:00,
2013-02-23 07:13:00,57.2,56.8,29.87,South,171,1.0,3.0,99,0.31,,,0.43,meteohub,2013-02-23 13:13:00,
2013-02-23 07:18:00,57.2,56.8,29.88,South,176,1.0,3.0,99,0.27,,,0.46,meteohub,2013-02-23 13:18:00,
2013-02-23 07:23:00,57.0,56.7,29.89,South,179,3.0,3.0,99,0.25,,,0.47,meteohub,2013-02-23 13:23:00,
2013-02-23 07:28:00,57.0,56.7,29.89,South,186,1.0,3.0,99,0.25,,,0.50,meteohub,2013-02-23 13:28:00,
2013-02-23 07:33:00,57.0,56.7,29.90,South,190,0.0,3.0,99,0.24,,,0.52,meteohub,2013-02-23 13:33:00,
2013-02-23 07:38:00,57.0,56.7,29.90,South,185,0.0,5.0,99,0.22,,,0.53,meteohub,2013-02-23 13:38:00,
2013-02-23 07:43:00,56.8,56.5,29.87,South,186,4.0,5.0,99,0.22,,,0.55,meteohub,2013-02-23 13:43:00,
2013-02-23 07:48:00,56.8,56.5,29.87,South,174,3.0,8.0,99,0.21,,,0.57,meteohub,2013-02-23 13:48:00,
2013-02-23 07:53:00,56.8,56.5,29.87,South,181,7.0,8.0,99,0.19,,,0.58,meteohub,2013-02-23 13:53:00,
2013-02-23 07:58:00,56.7,56.3,29.86,South,181,5.0,8.0,99,0.20,,,0.60,meteohub,2013-02-23 13:58:00,
2013-02-23 08:03:00,56.7,56.3,29.87,South,176,3.0,8.0,99,0.20,,,0.61,meteohub,2013-02-23 14:03:00,
2013-02-23 08:08:00,56.7,56.3,29.87,SSE,167,2.0,8.0,99,0.18,,,0.61,meteohub,2013-02-23 14:08:00,
2013-02-23 08:14:00,56.7,56.3,29.88,SSE,168,1.0,7.0,99,0.18,,,0.62,meteohub,2013-02-23 14:14:00,
2013-02-23 08:19:00,56.7,56.3,29.88,South,172,1.0,6.0,99,0.16,,,0.63,meteohub,2013-02-23 14:19:00,
2013-02-23 08:24:00,56.7,56.3,29.89,South,172,2.0,5.0,99,0.14,,,0.63,meteohub,2013-02-23 14:24:00,
2013-02-23 08:29:00,56.7,56.3,29.89,South,171,0.0,5.0,99,0.12,,,0.63,meteohub,2013-02-23 14:29:00,
2013-02-23 08:34:00,56.7,56.3,29.89,South,175,2.0,5.0,99,0.11,,,0.63,meteohub,2013-02-23 14:34:00,
2013-02-23 08:39:00,56.7,56.3,29.88,South,179,2.0,3.0,99,0.09,,,0.63,meteohub,2013-02-23 14:39:00,
2013-02-23 08:44:00,56.7,56.3,29.88,South,175,1.0,3.0,99,0.07,,,0.63,meteohub,2013-02-23 14:44:00,
2013-02-23 08:49:00,56.7,56.3,29.88,South,178,2.0,3.0,99,0.05,,,0.63,meteohub,2013-02-23 14:49:00,
2013-02-23 08:54:00,56.5,56.1,29.88,South,171,1.0,4.0,99,0.04,,,0.63,meteohub,2013-02-23 14:54:00,
2013-02-23 08:59:00,56.5,56.1,29.88,SSE,168,2.0,5.0,99,0.03,,,0.63,meteohub,2013-02-23 14:59:00,
2013-02-23 09:04:00,56.5,56.1,29.88,South,171,1.0,7.0,99,0.02,,,0.63,meteohub,2013-02-23 15:04:00,
2013-02-23 09:09:00,56.5,56.1,29.87,South,172,1.0,7.0,99,0.01,,,0.63,meteohub,2013-02-23 15:09:00,
2013-02-23 09:14:00,56.3,55.9,29.87,SSE,165,3.0,7.0,99,0.00,,,0.63,meteohub,2013-02-23 15:14:00,
2013-02-23 09:19:00,56.1,55.8,29.88,South,169,0.0,8.0,99,0.00,,,0.63,meteohub,2013-02-23 15:19:00,
2013-02-23 09:24:00,56.1,55.8,29.88,South,182,0.0,8.0,99,0.00,,,0.63,meteohub,2013-02-23 15:24:00,
2013-02-23 09:29:00,56.1,55.8,29.88,South,179,1.0,8.0,99,0.00,,,0.63,meteohub,2013-02-23 15:29:00,
2013-02-23 09:34:00,56.3,55.9,29.88,South,181,1.0,4.0,99,0.00,,,0.63,meteohub,2013-02-23 15:34:00,
2013-02-23 09:39:00,56.3,55.9,29.88,South,189,5.0,7.0,99,0.00,,,0.63,meteohub,2013-02-23 15:39:00,
2013-02-23 09:44:00,56.5,56.1,29.87,South,190,6.0,7.0,99,0.00,,,0.63,meteohub,2013-02-23 15:44:00,
2013-02-23 09:49:00,56.5,56.1,29.87,South,186,1.0,7.0,99,0.00,,,0.63,meteohub,2013-02-23 15:49:00,
2013-02-23 09:54:00,56.7,56.3,29.86,South,190,3.0,6.0,99,0.00,,,0.63,meteohub,2013-02-23 15:54:00,
2013-02-23 09:59:00,56.8,56.5,29.87,South,185,1.0,6.0,99,0.01,,,0.64,meteohub,2013-02-23 15:59:00,
2013-02-23 10:04:00,56.8,56.5,29.86,South,178,3.0,7.0,99,0.01,,,0.64,meteohub,2013-02-23 16:04:00,
2013-02-23 10:09:00,57.0,56.7,29.86,South,169,4.0,7.0,99,0.01,,,0.64,meteohub,2013-02-23 16:09:00,
2013-02-23 10:14:00,56.8,56.5,29.86,SSW,192,5.0,8.0,99,0.01,,,0.64,meteohub,2013-02-23 16:14:00,
2013-02-23 10:19:00,57.0,56.7,29.86,South,185,2.0,10.0,99,0.01,,,0.64,meteohub,2013-02-23 16:19:00,
2013-02-23 10:24:00,57.0,56.7,29.86,South,190,5.0,10.0,99,0.01,,,0.64,meteohub,2013-02-23 16:24:00,
2013-02-23 10:29:00,57.2,56.8,29.86,South,178,2.0,10.0,99,0.01,,,0.64,meteohub,2013-02-23 16:29:00,
2013-02-23 10:34:00,57.4,57.0,29.86,South,183,3.0,6.0,99,0.01,,,0.64,meteohub,2013-02-23 16:34:00,
2013-02-23 10:39:00,57.4,56.8,29.86,South,186,3.0,6.0,98,0.01,,,0.64,meteohub,2013-02-23 16:39:00,
2013-02-23 10:44:00,57.6,57.0,29.86,South,185,2.0,5.0,98,0.01,,,0.64,meteohub,2013-02-23 16:44:00,
2013-02-23 10:49:00,57.7,57.2,29.86,South,182,2.0,5.0,98,0.01,,,0.64,meteohub,2013-02-23 16:49:00,
2013-02-23 10:54:00,57.9,57.4,29.86,South,174,2.0,5.0,98,0.00,,,0.64,meteohub,2013-02-23 16:54:00,
2013-02-23 10:59:00,57.9,57.4,29.86,South,189,3.0,5.0,98,0.00,,,0.64,meteohub,2013-02-23 16:59:00,
2013-02-23 11:04:00,58.3,57.7,29.86,SSW,192,2.0,5.0,98,0.00,,,0.64,meteohub,2013-02-23 17:04:00,
2013-02-23 11:09:00,58.5,57.9,29.86,South,190,3.0,6.0,98,0.00,,,0.64,meteohub,2013-02-23 17:09:00,
2013-02-23 11:14:00,58.5,57.6,29.86,South,186,4.0,6.0,97,0.00,,,0.64,meteohub,2013-02-23 17:14:00,
2013-02-23 11:19:00,58.5,57.6,29.86,South,189,3.0,6.0,97,0.00,,,0.64,meteohub,2013-02-23 17:19:00,
2013-02-23 11:24:00,58.8,57.9,29.86,South,182,3.0,6.0,97,0.00,,,0.64,meteohub,2013-02-23 17:24:00,
2013-02-23 11:29:00,58.8,57.9,29.87,South,188,4.0,7.0,97,0.00,,,0.64,meteohub,2013-02-23 17:29:00,
2013-02-23 11:35:00,59.0,58.1,29.87,South,174,2.0,7.0,97,0.00,,,0.64,meteohub,2013-02-23 17:35:00,
2013-02-23 11:40:00,59.0,57.9,29.87,South,179,1.0,7.0,96,0.00,,,0.64,meteohub,2013-02-23 17:40:00,
2013-02-23 11:45:00,59.0,57.9,29.88,South,179,1.0,6.0,96,0.00,,,0.64,meteohub,2013-02-23 17:45:00,
2013-02-23 11:50:00,59.0,57.9,29.88,South,179,0.0,5.0,96,0.00,,,0.64,meteohub,2013-02-23 17:50:00,
2013-02-23 11:55:00,59.2,58.1,29.88,South,181,1.0,5.0,96,0.00,,,0.64,meteohub,2013-02-23 17:55:00,
2013-02-23 12:00:00,59.4,58.3,29.87,South,185,5.0,5.0,96,0.00,,,0.64,meteohub,2013-02-23 18:00:00,
2013-02-23 12:05:00,59.4,58.3,29.87,South,181,1.0,5.0,96,0.00,,,0.64,meteohub,2013-02-23 18:05:00,
2013-02-23 12:10:00,59.4,58.3,29.86,South,183,2.0,5.0,96,0.00,,,0.64,meteohub,2013-02-23 18:10:00,
2013-02-23 12:15:00,59.4,58.3,29.87,South,179,2.0,5.0,96,0.00,,,0.64,meteohub,2013-02-23 18:15:00,
2013-02-23 12:20:00,59.4,57.9,29.86,South,185,1.0,7.0,95,0.00,,,0.64,meteohub,2013-02-23 18:20:00,
2013-02-23 12:25:00,59.5,58.5,29.86,South,185,4.0,7.0,96,0.00,,,0.64,meteohub,2013-02-23 18:25:00,
2013-02-23 12:30:00,59.5,58.1,29.86,South,183,0.0,6.0,95,0.00,,,0.64,meteohub,2013-02-23 18:30:00,
2013-02-23 12:35:00,59.7,58.3,29.85,South,185,3.0,6.0,95,0.00,,,0.64,meteohub,2013-02-23 18:35:00,
2013-02-23 12:40:00,59.9,58.5,29.85,South,188,7.0,7.0,95,0.00,,,0.64,meteohub,2013-02-23 18:40:00,
2013-02-23 12:45:00,59.7,58.3,29.85,South,186,2.0,5.0,95,0.00,,,0.64,meteohub,2013-02-23 18:45:00,
2013-02-23 12:50:00,59.5,58.1,29.84,South,171,5.0,7.0,95,0.00,,,0.64,meteohub,2013-02-23 18:50:00,
2013-02-23 12:55:00,59.5,58.1,29.84,South,185,6.0,8.0,95,0.00,,,0.64,meteohub,2013-02-23 18:55:00,
2013-02-23 13:00:00,59.5,58.1,29.84,SSW,197,7.0,9.0,95,0.00,,,0.64,meteohub,2013-02-23 19:00:00,
2013-02-23 13:05:00,59.5,58.1,29.86,South,179,0.0,9.0,95,0.00,,,0.64,meteohub,2013-02-23 19:05:00,
2013-02-23 13:10:00,59.5,58.1,29.88,South,182,0.0,9.0,95,0.00,,,0.64,meteohub,2013-02-23 19:10:00,
2013-02-23 13:15:00,59.5,58.1,29.87,SSW,192,1.0,7.0,95,0.00,,,0.64,meteohub,2013-02-23 19:15:00,
2013-02-23 13:20:00,59.5,58.5,29.88,SSE,162,3.0,3.0,96,0.00,,,0.64,meteohub,2013-02-23 19:20:00,
2013-02-23 13:25:00,59.2,58.1,29.87,South,181,0.0,4.0,96,0.01,,,0.65,meteohub,2013-02-23 19:25:00,
2013-02-23 13:30:00,59.0,57.9,29.86,South,176,2.0,4.0,96,0.02,,,0.66,meteohub,2013-02-23 19:30:00,
2013-02-23 13:35:00,58.8,57.7,29.87,SSE,165,3.0,3.0,96,0.03,,,0.67,meteohub,2013-02-23 19:35:00,
2013-02-23 13:41:00,58.6,57.7,29.87,SSE,155,4.0,4.0,97,0.04,,,0.68,meteohub,2013-02-23 19:41:00,
2013-02-23 13:46:00,58.6,57.7,29.87,South,179,0.0,4.0,97,0.05,,,0.68,meteohub,2013-02-23 19:46:00,
2013-02-23 13:51:00,58.6,57.7,29.86,South,179,1.0,4.0,97,0.06,,,0.70,meteohub,2013-02-23 19:51:00,
2013-02-23 13:56:00,58.5,57.6,29.85,South,182,2.0,4.0,97,0.07,,,0.71,meteohub,2013-02-23 19:56:00,
2013-02-23 14:01:00,58.5,57.9,29.86,South,176,0.0,3.0,98,0.08,,,0.72,meteohub,2013-02-23 20:01:00,
2013-02-23 14:06:00,58.5,57.9,29.87,South,169,2.0,3.0,98,0.08,,,0.72,meteohub,2013-02-23 20:06:00,
2013-02-23 14:11:00,58.3,57.4,29.86,South,185,2.0,5.0,97,0.09,,,0.73,meteohub,2013-02-23 20:11:00,
2013-02-23 14:16:00,57.9,57.0,29.86,South,189,1.0,5.0,97,0.09,,,0.73,meteohub,2013-02-23 20:16:00,
2013-02-23 14:21:00,57.9,57.4,29.86,South,186,1.0,5.0,98,0.08,,,0.73,meteohub,2013-02-23 20:21:00,
2013-02-23 14:26:00,57.9,57.4,29.86,South,176,3.0,4.0,98,0.07,,,0.73,meteohub,2013-02-23 20:26:00,
2013-02-23 14:31:00,57.7,57.2,29.85,South,183,1.0,3.0,98,0.06,,,0.73,meteohub,2013-02-23 20:31:00,
2013-02-23 14:36:00,57.7,57.2,29.85,SSE,168,4.0,4.0,98,0.07,,,0.74,meteohub,2013-02-23 20:36:00,
2013-02-23 14:41:00,57.7,57.2,29.85,South,186,2.0,5.0,98,0.06,,,0.74,meteohub,2013-02-23 20:41:00,
2013-02-23 14:46:00,57.7,57.2,29.85,South,185,1.0,5.0,98,0.05,,,0.74,meteohub,2013-02-23 20:46:00,
2013-02-23 14:51:00,57.7,57.2,29.84,South,186,0.0,5.0,98,0.04,,,0.74,meteohub,2013-02-23 20:51:00,
2013-02-23 14:56:00,57.6,57.0,29.84,South,179,2.0,6.0,98,0.03,,,0.74,meteohub,2013-02-23 20:56:00,
2013-02-23 15:01:00,57.6,57.0,29.84,South,189,2.0,6.0,98,0.02,,,0.74,meteohub,2013-02-23 21:01:00,
2013-02-23 15:06:00,57.6,57.0,29.84,South,188,0.0,6.0,98,0.02,,,0.74,meteohub,2013-02-23 21:06:00,
2013-02-23 15:11:00,57.6,57.0,29.83,South,181,2.0,5.0,98,0.02,,,0.75,meteohub,2013-02-23 21:11:00,
2013-02-23 15:16:00,57.6,57.0,29.82,South,182,3.0,5.0,98,0.02,,,0.75,meteohub,2013-02-23 21:16:00,
2013-02-23 15:21:00,57.6,57.0,29.82,South,176,2.0,5.0,98,0.02,,,0.75,meteohub,2013-02-23 21:21:00,
2013-02-23 15:26:00,57.6,57.0,29.81,South,171,4.0,5.0,98,0.02,,,0.75,meteohub,2013-02-23 21:26:00,
2013-02-23 15:31:00,57.6,57.0,29.78,South,178,4.0,6.0,98,0.02,,,0.75,meteohub,2013-02-23 21:31:00,
2013-02-23 15:36:00,57.6,57.0,29.76,South,175,5.0,9.0,98,0.02,,,0.76,meteohub,2013-02-23 21:36:00,
2013-02-23 15:41:00,57.6,57.0,29.75,SSE,164,1.0,11.0,98,0.02,,,0.76,meteohub,2013-02-23 21:41:00,
2013-02-23 15:46:00,57.7,57.2,29.75,SSE,165,6.0,11.0,98,0.02,,,0.76,meteohub,2013-02-23 21:46:00,
2013-02-23 15:51:00,57.9,57.4,29.74,SSE,164,3.0,12.0,98,0.02,,,0.76,meteohub,2013-02-23 21:51:00,
2013-02-23 15:56:00,57.9,57.4,29.75,SSE,159,1.0,12.0,98,0.02,,,0.76,meteohub,2013-02-23 21:56:00,
2013-02-23 16:01:00,57.9,57.4,29.75,SSE,163,1.0,10.0,98,0.02,,,0.76,meteohub,2013-02-23 22:01:00,
2013-02-23 16:06:00,58.1,57.6,29.75,South,188,5.0,10.0,98,0.01,,,0.76,meteohub,2013-02-23 22:06:00,
2013-02-23 16:11:00,58.3,57.7,29.75,SSE,162,3.0,7.0,98,0.01,,,0.76,meteohub,2013-02-23 22:11:00,
2013-02-23 16:16:00,58.5,57.9,29.75,SSE,165,3.0,6.0,98,0.01,,,0.76,meteohub,2013-02-23 22:16:00,
2013-02-23 16:21:00,58.5,57.9,29.76,SSE,158,1.0,6.0,98,0.01,,,0.76,meteohub,2013-02-23 22:21:00,
2013-02-23 16:26:00,58.6,58.1,29.77,SSE,161,0.0,5.0,98,0.01,,,0.76,meteohub,2013-02-23 22:26:00,
2013-02-23 16:31:00,58.6,58.1,29.77,SSE,151,1.0,4.0,98,0.00,,,0.76,meteohub,2013-02-23 22:31:00,
2013-02-23 16:36:00,58.6,58.1,29.78,SSE,151,1.0,3.0,98,0.00,,,0.76,meteohub,2013-02-23 22:36:00,
2013-02-23 16:41:00,58.6,58.1,29.80,SSE,151,0.0,3.0,98,0.00,,,0.76,meteohub,2013-02-23 22:41:00,
2013-02-23 16:47:00,58.6,58.1,29.81,SSE,152,0.0,2.0,98,0.00,,,0.76,meteohub,2013-02-23 22:47:00,
2013-02-23 16:52:00,58.6,58.1,29.80,SSE,157,0.0,1.0,98,0.00,,,0.76,meteohub,2013-02-23 22:52:00,
2013-02-23 16:57:00,58.6,58.1,29.79,SSE,159,1.0,1.0,98,0.00,,,0.76,meteohub,2013-02-23 22:57:00,
2013-02-23 17:02:00,58.6,58.1,29.81,SSE,162,3.0,3.0,98,0.00,,,0.76,meteohub,2013-02-23 23:02:00,
2013-02-23 17:07:00,58.6,58.1,29.81,SSW,192,2.0,8.0,98,0.00,,,0.76,meteohub,2013-02-23 23:07:00,
2013-02-23 17:12:00,58.6,58.1,29.80,South,189,2.0,8.0,98,0.00,,,0.76,meteohub,2013-02-23 23:12:00,
2013-02-23 17:17:00,58.6,58.1,29.83,South,169,5.0,8.0,98,0.00,,,0.76,meteohub,2013-02-23 23:17:00,
2013-02-23 17:22:00,58.5,57.9,29.82,South,185,5.0,9.0,98,0.00,,,0.76,meteohub,2013-02-23 23:22:00,
2013-02-23 17:27:00,58.3,57.7,29.82,SSW,203,1.0,9.0,98,0.00,,,0.76,meteohub,2013-02-23 23:27:00,
2013-02-23 17:32:00,58.1,57.6,29.83,SSW,196,5.0,10.0,98,0.00,,,0.76,meteohub,2013-02-23 23:32:00,
2013-02-23 17:37:00,57.9,57.4,29.83,SSW,197,3.0,10.0,98,0.00,,,0.76,meteohub,2013-02-23 23:37:00,
2013-02-23 17:42:00,57.7,57.2,29.83,South,169,3.0,8.0,98,0.00,,,0.76,meteohub,2013-02-23 23:42:00,
2013-02-23 17:47:00,57.6,57.0,29.83,SSW,193,2.0,8.0,98,0.00,,,0.76,meteohub,2013-02-23 23:47:00,
2013-02-23 17:52:00,57.6,57.0,29.82,South,188,3.0,8.0,98,0.00,,,0.76,meteohub,2013-02-23 23:52:00,
2013-02-23 17:57:00,57.6,57.0,29.85,South,188,2.0,8.0,98,0.00,,,0.76,meteohub,2013-02-23 23:57:00,
2013-02-23 18:02:00,57.6,57.0,29.83,SSW,206,1.0,9.0,98,0.00,,,0.76,meteohub,2013-02-24 00:02:00,
2013-02-23 18:07:00,57.6,57.0,29.84,SSW,192,2.0,9.0,98,0.00,,,0.76,meteohub,2013-02-24 00:07:00,
2013-02-23 18:12:00,57.4,56.8,29.84,South,183,3.0,7.0,98,0.00,,,0.76,meteohub,2013-02-24 00:12:00,
2013-02-23 18:17:00,57.4,56.8,29.86,SSW,193,2.0,5.0,98,0.00,,,0.76,meteohub,2013-02-24 00:17:00,
2013-02-23 18:22:00,57.4,56.8,29.86,SSW,200,0.0,5.0,98,0.00,,,0.76,meteohub,2013-02-24 00:22:00,
2013-02-23 18:27:00,57.4,56.8,29.85,SSW,200,0.0,5.0,98,0.00,,,0.76,meteohub,2013-02-24 00:27:00,
2013-02-23 18:32:00,57.4,56.8,29.86,SSW,197,0.0,5.0,98,0.00,,,0.76,meteohub,2013-02-24 00:32:00,
2013-02-23 18:37:00,57.4,56.8,29.87,SSW,195,0.0,5.0,98,0.00,,,0.76,meteohub,2013-02-24 00:37:00,
2013-02-23 18:42:00,57.4,56.8,29.87,SSW,195,1.0,3.0,98,0.00,,,0.76,meteohub,2013-02-24 00:42:00,
2013-02-23 18:47:00,57.4,56.8,29.87,SSW,195,0.0,3.0,98,0.00,,,0.76,meteohub,2013-02-24 00:47:00,
2013-02-23 18:52:00,57.4,56.8,29.87,SSW,194,1.0,3.0,98,0.00,,,0.76,meteohub,2013-02-24 00:52:00,
2013-02-23 18:57:00,57.4,56.8,29.87,SSW,192,2.0,3.0,98,0.00,,,0.76,meteohub,2013-02-24 00:57:00,
2013-02-23 19:02:00,57.4,56.8,29.87,SSW,197,1.0,4.0,98,0.00,,,0.76,meteohub,2013-02-24 01:02:00,
2013-02-23 19:07:00,57.4,56.8,29.86,SSW,192,1.0,4.0,98,0.00,,,0.76,meteohub,2013-02-24 01:07:00,
2013-02-23 19:13:00,57.2,56.7,29.87,South,190,2.0,4.0,98,0.00,,,0.76,meteohub,2013-02-24 01:13:00,
2013-02-23 19:18:00,57.2,56.7,29.87,South,190,1.0,5.0,98,0.00,,,0.76,meteohub,2013-02-24 01:18:00,
2013-02-23 19:23:00,57.2,56.7,29.87,South,189,1.0,5.0,98,0.00,,,0.76,meteohub,2013-02-24 01:23:00,
2013-02-23 19:28:00,57.2,56.7,29.87,SSW,192,0.0,4.0,98,0.00,,,0.76,meteohub,2013-02-24 01:28:00,
2013-02-23 19:33:00,57.2,56.7,29.87,South,190,1.0,3.0,98,0.00,,,0.76,meteohub,2013-02-24 01:33:00,
2013-02-23 19:38:00,57.2,56.7,29.87,SSW,200,0.0,3.0,98,0.00,,,0.76,meteohub,2013-02-24 01:38:00,
2013-02-23 19:43:00,57.2,56.7,29.87,SSW,195,1.0,3.0,98,0.00,,,0.76,meteohub,2013-02-24 01:43:00,
2013-02-23 19:48:00,57.2,56.7,29.87,SSW,195,0.0,3.0,98,0.00,,,0.76,meteohub,2013-02-24 01:48:00,
2013-02-23 19:53:00,57.0,56.5,29.88,South,179,1.0,2.0,98,0.00,,,0.76,meteohub,2013-02-24 01:53:00,
2013-02-23 19:58:00,57.0,56.5,29.88,South,179,1.0,2.0,98,0.00,,,0.76,meteohub,2013-02-24 01:58:00,
2013-02-23 20:03:00,57.0,56.5,29.88,South,181,0.0,2.0,98,0.00,,,0.76,meteohub,2013-02-24 02:03:00,
2013-02-23 20:08:00,57.2,56.7,29.88,South,185,0.0,4.0,98,0.00,,,0.76,meteohub,2013-02-24 02:08:00,
2013-02-23 20:13:00,57.0,56.5,29.87,South,183,1.0,4.0,98,0.00,,,0.76,meteohub,2013-02-24 02:13:00,
2013-02-23 20:18:00,57.2,56.7,29.88,South,182,0.0,4.0,98,0.00,,,0.76,meteohub,2013-02-24 02:18:00,
2013-02-23 20:23:00,57.2,56.7,29.88,South,185,0.0,3.0,98,0.00,,,0.76,meteohub,2013-02-24 02:23:00,
2013-02-23 20:28:00,57.2,56.7,29.89,South,183,0.0,3.0,98,0.00,,,0.76,meteohub,2013-02-24 02:28:00,
2013-02-23 20:33:00,57.0,56.5,29.89,South,178,0.0,2.0,98,0.00,,,0.76,meteohub,2013-02-24 02:33:00,
2013-02-23 20:38:00,57.0,56.5,29.89,South,176,0.0,1.0,98,0.00,,,0.76,meteohub,2013-02-24 02:38:00,
2013-02-23 20:43:00,57.0,56.5,29.90,South,181,0.0,1.0,98,0.00,,,0.76,meteohub,2013-02-24 02:43:00,
2013-02-23 20:48:00,57.2,56.7,29.90,South,186,3.0,3.0,98,0.00,,,0.76,meteohub,2013-02-24 02:48:00,
2013-02-23 20:53:00,57.2,56.7,29.90,South,185,1.0,3.0,98,0.00,,,0.76,meteohub,2013-02-24 02:53:00,
2013-02-23 20:58:00,57.0,56.5,29.90,South,173,2.0,3.0,98,0.00,,,0.76,meteohub,2013-02-24 02:58:00,
2013-02-23 21:03:00,57.2,56.7,29.91,South,183,1.0,4.0,98,0.00,,,0.76,meteohub,2013-02-24 03:03:00,
2013-02-23 21:08:00,57.2,56.3,29.91,South,182,0.0,4.0,97,0.00,,,0.76,meteohub,2013-02-24 03:08:00,
2013-02-23 21:13:00,57.2,56.3,29.91,South,185,1.0,4.0,97,0.00,,,0.76,meteohub,2013-02-24 03:13:00,
2013-02-23 21:18:00,57.2,56.3,29.91,South,185,0.0,2.0,97,0.00,,,0.76,meteohub,2013-02-24 03:18:00,
2013-02-23 21:23:00,57.2,56.3,29.91,South,185,0.0,2.0,97,0.00,,,0.76,meteohub,2013-02-24 03:23:00,
2013-02-23 21:28:00,57.2,56.3,29.91,South,183,1.0,2.0,97,0.00,,,0.76,meteohub,2013-02-24 03:28:00,
2013-02-23 21:33:00,57.2,56.3,29.91,South,183,0.0,2.0,97,0.00,,,0.76,meteohub,2013-02-24 03:33:00,
2013-02-23 21:38:00,57.2,56.3,29.91,South,183,0.0,3.0,97,0.00,,,0.76,meteohub,2013-02-24 03:38:00,
2013-02-23 21:43:00,57.2,56.3,29.91,South,183,0.0,3.0,97,0.00,,,0.76,meteohub,2013-02-24 03:43:00,
2013-02-23 21:48:00,57.0,56.1,29.91,South,181,1.0,3.0,97,0.00,,,0.76,meteohub,2013-02-24 03:48:00,
2013-02-23 21:53:00,57.0,56.1,29.91,South,186,1.0,3.0,97,0.00,,,0.76,meteohub,2013-02-24 03:53:00,
2013-02-23 21:58:00,57.0,56.1,29.91,South,185,0.0,3.0,97,0.00,,,0.76,meteohub,2013-02-24 03:58:00,
2013-02-23 22:03:00,57.0,56.1,29.91,South,183,0.0,3.0,97,0.00,,,0.76,meteohub,2013-02-24 04:03:00,
2013-02-23 22:08:00,57.0,56.1,29.91,South,185,3.0,3.0,97,0.00,,,0.76,meteohub,2013-02-24 04:08:00,
2013-02-23 22:13:00,57.0,56.1,29.92,South,182,1.0,3.0,97,0.00,,,0.76,meteohub,2013-02-24 04:13:00,
2013-02-23 22:18:00,57.0,56.1,29.92,South,182,2.0,3.0,97,0.00,,,0.76,meteohub,2013-02-24 04:18:00,
2013-02-23 22:23:00,56.8,55.9,29.92,South,181,1.0,5.0,97,0.00,,,0.76,meteohub,2013-02-24 04:23:00,
2013-02-23 22:28:00,56.8,55.9,29.92,South,186,3.0,5.0,97,0.00,,,0.76,meteohub,2013-02-24 04:28:00,
2013-02-23 22:33:00,56.8,55.9,29.92,South,183,2.0,5.0,97,0.00,,,0.76,meteohub,2013-02-24 04:33:00,
2013-02-23 22:38:00,56.8,55.9,29.92,South,183,0.0,5.0,97,0.00,,,0.76,meteohub,2013-02-24 04:38:00,
2013-02-23 22:44:00,56.7,55.8,29.92,South,185,1.0,4.0,97,0.00,,,0.76,meteohub,2013-02-24 04:44:00,
2013-02-23 22:49:00,56.7,55.8,29.92,South,183,3.0,4.0,97,0.00,,,0.76,meteohub,2013-02-24 04:49:00,
2013-02-23 22:54:00,56.7,55.8,29.91,South,181,1.0,5.0,97,0.00,,,0.76,meteohub,2013-02-24 04:54:00,
2013-02-23 22:59:00,56.5,55.6,29.91,South,181,3.0,6.0,97,0.00,,,0.76,meteohub,2013-02-24 04:59:00,
2013-02-23 23:00:00,56.5,55.6,29.91,South,175,4.0,6.0,97,0.00,,,0.76,meteohub,2013-02-24 05:00:00,
2013-02-23 23:05:00,56.3,55.4,29.91,South,179,1.0,7.0,97,0.00,,,0.76,meteohub,2013-02-24 05:05:00,
2013-02-23 23:10:00,56.1,55.2,29.91,South,182,4.0,7.0,97,0.00,,,0.76,meteohub,2013-02-24 05:10:00,
2013-02-23 23:15:00,55.9,55.4,29.91,South,185,2.0,7.0,98,0.00,,,0.76,meteohub,2013-02-24 05:15:00,
2013-02-23 23:20:00,55.9,55.4,29.92,South,183,2.0,7.0,98,0.00,,,0.76,meteohub,2013-02-24 05:20:00,
2013-02-23 23:25:00,55.8,55.2,29.92,South,181,3.0,7.0,98,0.00,,,0.76,meteohub,2013-02-24 05:25:00,
2013-02-23 23:30:00,55.8,55.2,29.92,South,186,1.0,5.0,98,0.00,,,0.76,meteohub,2013-02-24 05:30:00,
2013-02-23 23:35:00,55.8,55.2,29.92,South,183,1.0,4.0,98,0.00,,,0.76,meteohub,2013-02-24 05:35:00,
2013-02-23 23:40:00,55.6,55.0,29.92,South,185,3.0,4.0,98,0.00,,,0.76,meteohub,2013-02-24 05:40:00,
2013-02-23 23:45:00,55.6,55.0,29.92,SSE,161,4.0,6.0,98,0.00,,,0.76,meteohub,2013-02-24 05:45:00,
2013-02-23 23:50:00,55.6,55.0,29.92,South,176,1.0,7.0,98,0.00,,,0.76,meteohub,2013-02-24 05:50:00,
2013-02-23 23:55:00,55.6,55.0,29.92,South,181,1.0,7.0,98,0.00,,,0.76,meteohub,2013-02-24 05:55:00,